Quandahl, Iowa
Current Conditions -  °F | °C
As of 3:15 PM on Friday 24 Oct 2014 (Local Time) from KDEH Reporting Station
Haze Haze  
Wind Chill: 57°   Ceiling: 500
Heat Index: 57°   Visibility: 4mi
Dew Point: 55°   Wind: 9mph
Humidity: 94%   Direction: 210°SSW
Pressure: 29.89"   Gusts: 16mph
Location:  43.3626°N, 91.8164°W
Report Text: KDEH 242015Z AUTO 21008G14KT 160V240 4SM BR OVC005 14/13 A2989 RMK AO2
Loading
Personal Weather Stations






























Interactive Weather Map New forecast layout! Learn more

10-Day Weather Forecast

Advertisements
Track Severe Weather on mobile